Google Maps JavaScript API Example
Pilot Flight Report # 93036 Submitted by : AST775 on 2019-06-12
Date: 2019-06-12Aircraft: DeHavilland DHC6 Twin Otter - Wheeled
Flight No.: Not AvailableDistance (Nm): 124.34
Departure: MYNN - Nassau IntlDestination: MYEF - Exuma Intl
 TimeFuelWeightSpeeds  
Out (Taxi)2125Z1889 lbs10674 lbs Flight RulesVFR
Off (Takeoff)2125Z 10671 lbs85 ktsFlight Level6500
On (Landing)2209Z 10118 lbs114 ktsVSTD-168 ft/min
In (Ramp)2209Z1333 lbs10118 lbs ZFW8783 lbs
Flight0.70  -  0:44556 lbs  Pax0
Block0.73  -  0:44556 lbs  Cargo0
Departure WeatherMYNN 262124Z 06812KT 56SM BKN020 27/21 A3008
Destination WeatherMYEF 262209Z 06215KT 30SM SKC 26/20 A3003
Flight Commentsjune leg 17 MYNN-MYEF